Time;durP1;ratioP1;P1;durP2;ratioP2;P2;SDS_P1;SDS_P2;PMS_P1;PMS_P2;Temp;Humidity;BMP_temperature;BMP_pressure;BME280_temperature;BME280_humidity;BME280_pressure;Samples;Min_cycle;Max_cycle;Signal;HPM_P1;HPM_P2
2022/10/10 00:00:40;;;;;;;43.87;28.73;;;;;;;2.98;76.99;101739.08;3349148;81;21058;-88
2022/10/10 00:05:31;;;;;;;34.85;23.30;;;;;;;2.98;77.05;101749.36;3397854;82;21128;-88
2022/10/10 00:10:22;;;;;;;46.95;30.25;;;;;;;2.91;76.86;101740.77;3408329;82;21466;-88
2022/10/10 00:15:14;;;;;;;41.98;26.05;;;;;;;2.87;76.94;101733.66;3382074;80;21030;-88
2022/10/10 00:20:06;;;;;;;32.20;20.85;;;;;;;2.82;76.75;101737.61;3395095;82;21454;-88
2022/10/10 00:24:57;;;;;;;37.95;26.10;;;;;;;2.77;76.61;101737.70;3388519;83;20931;-88
2022/10/10 00:29:49;;;;;;;32.55;23.20;;;;;;;2.71;76.63;101736.03;3390383;82;21421;-88
2022/10/10 00:34:40;;;;;;;34.03;22.77;;;;;;;2.65;76.68;101739.09;3404574;82;20928;-88
2022/10/10 00:39:31;;;;;;;30.50;22.22;;;;;;;2.62;76.82;101739.77;3332162;83;21065;-88
2022/10/10 00:44:22;;;;;;;30.90;21.33;;;;;;;2.56;76.91;101741.95;3356590;83;21088;-88
2022/10/10 00:49:21;;;;;;;30.00;20.85;;;;;;;2.61;77.19;101735.81;3368061;83;21002;-88
2022/10/10 00:54:15;;;;;;;40.60;25.48;;;;;;;2.61;77.16;101729.02;3451146;80;22038;-88
2022/10/10 00:59:10;;;;;;;32.05;22.95;;;;;;;2.60;77.45;101725.95;3425198;81;20946;-88
2022/10/10 01:04:01;;;;;;;35.13;23.45;;;;;;;2.51;76.83;101720.22;3460344;80;21492;-88
2022/10/10 01:08:55;;;;;;;40.88;24.40;;;;;;;2.43;77.16;101721.37;3461452;80;20935;-88
2022/10/10 01:13:57;;;;;;;39.78;21.93;;;;;;;2.41;77.49;101728.09;3432931;80;21026;-88
2022/10/10 01:19:19;;;;;;;37.73;24.35;;;;;;;2.38;77.25;101728.79;3503773;80;21500;-88
2022/10/10 01:24:42;;;;;;;31.05;20.02;;;;;;;2.29;77.31;101723.94;3491635;80;20930;-88
2022/10/10 01:29:52;;;;;;;31.75;22.30;;;;;;;2.19;77.01;101726.66;3314398;84;20952;-88
2022/10/10 01:35:01;;;;;;;29.48;20.23;;;;;;;2.07;77.25;101728.00;3295616;84;21056;-88
2022/10/10 01:40:09;;;;;;;26.73;18.55;;;;;;;2.07;77.32;101736.09;3361052;84;20974;-88
2022/10/10 01:45:01;;;;;;;25.72;18.35;;;;;;;2.04;77.62;101726.91;3354803;84;21728;-88
2022/10/10 01:49:57;;;;;;;31.17;18.17;;;;;;;2.07;77.69;101720.70;3306783;84;21526;-88
2022/10/10 01:55:11;;;;;;;23.27;16.75;;;;;;;2.07;77.75;101725.84;3346144;84;20958;-88
2022/10/10 02:00:09;;;;;;;24.23;18.25;;;;;;;2.09;77.88;101720.41;3316039;84;21035;-88
2022/10/10 02:05:25;;;;;;;24.77;18.07;;;;;;;2.04;77.49;101716.64;3283084;83;20975;-88
2022/10/10 02:10:21;;;;;;;28.77;19.37;;;;;;;2.01;77.62;101712.61;3302585;85;21599;-88
2022/10/10 02:15:20;;;;;;;26.42;18.82;;;;;;;1.95;77.92;101717.31;3339235;84;21582;-88
2022/10/10 02:20:15;;;;;;;34.27;21.75;;;;;;;1.93;77.96;101724.02;3315005;84;20979;-88
2022/10/10 02:25:08;;;;;;;27.32;19.62;;;;;;;1.97;78.28;101727.27;3291392;84;20971;-89
2022/10/10 02:30:01;;;;;;;27.75;19.50;;;;;;;2.03;78.48;101728.99;3278972;84;20959;-88
2022/10/10 02:34:57;;;;;;;27.17;19.85;;;;;;;2.06;78.45;101731.77;3296057;80;21064;-88
2022/10/10 02:39:53;;;;;;;30.43;19.95;;;;;;;2.11;78.69;101727.84;3504257;80;20982;-88
2022/10/10 02:44:46;;;;;;;29.02;20.12;;;;;;;2.19;78.72;101718.09;3468240;80;20998;-88
2022/10/10 02:49:38;;;;;;;29.05;18.95;;;;;;;2.26;78.73;101723.72;3519154;80;20943;-88
2022/10/10 02:54:29;;;;;;;27.87;20.05;;;;;;;2.28;78.92;101721.26;3491436;80;20959;-88
2022/10/10 02:59:20;;;;;;;34.17;20.73;;;;;;;2.34;79.05;101720.77;3414620;80;20912;-88
2022/10/10 03:04:12;;;;;;;30.65;19.42;;;;;;;2.38;79.18;101715.05;3471305;82;21221;-88
2022/10/10 03:09:04;;;;;;;26.73;17.25;;;;;;;2.40;79.25;101714.38;3470113;80;20925;-88
2022/10/10 03:13:55;;;;;;;27.25;17.02;;;;;;;2.41;79.31;101705.87;3453517;80;20926;-88
2022/10/10 03:18:47;;;;;;;21.68;15.68;;;;;;;2.41;79.31;101696.00;3412229;80;21078;-88
2022/10/10 03:23:38;;;;;;;21.75;15.83;;;;;;;2.37;79.11;101701.73;3456075;80;21952;-88
2022/10/10 03:28:29;;;;;;;26.77;14.70;;;;;;;2.33;79.22;101689.50;3471038;80;20960;-88
2022/10/10 03:33:21;;;;;;;19.98;15.25;;;;;;;2.29;79.03;101692.26;3463167;80;20961;-88
2022/10/10 03:38:13;;;;;;;21.37;13.95;;;;;;;2.21;78.89;101689.16;3458271;80;20920;-88
2022/10/10 03:43:04;;;;;;;22.37;14.43;;;;;;;2.12;78.71;101698.82;3468850;80;20963;-88
2022/10/10 03:47:55;;;;;;;19.77;14.80;;;;;;;2.01;78.76;101699.79;3455089;80;21003;-88
2022/10/10 03:52:46;;;;;;;22.52;15.90;;;;;;;1.95;78.98;101700.64;3411335;80;21830;-88
2022/10/10 03:57:37;;;;;;;21.27;13.15;;;;;;;1.90;79.13;101699.06;3455520;80;21652;-88
2022/10/10 04:02:28;;;;;;;19.70;14.65;;;;;;;1.88;79.06;101705.77;3436601;80;21482;-88
2022/10/10 04:07:19;;;;;;;24.92;16.27;;;;;;;1.89;79.49;101707.53;3463283;80;20916;-88
2022/10/10 04:12:10;;;;;;;22.27;15.58;;;;;;;1.93;79.33;101699.65;3479992;80;21644;-88
2022/10/10 04:17:01;;;;;;;16.85;12.85;;;;;;;1.96;79.44;101701.15;3456323;80;21014;-88
2022/10/10 04:21:53;;;;;;;25.45;13.72;;;;;;;1.93;79.13;101685.55;3448182;80;20998;-89
2022/10/10 04:26:44;;;;;;;25.72;15.32;;;;;;;1.82;79.16;101691.23;3383644;80;20982;-89
2022/10/10 04:31:35;;;;;;;23.30;16.07;;;;;;;1.82;79.48;101689.55;3392945;80;20979;-89
2022/10/10 04:36:26;;;;;;;23.47;15.08;;;;;;;1.84;79.64;101689.66;3483565;80;21137;-89
2022/10/10 04:41:17;;;;;;;21.77;13.88;;;;;;;1.85;79.35;101686.31;3492215;80;21032;-89
2022/10/10 04:46:09;;;;;;;25.20;14.80;;;;;;;1.67;78.72;101695.81;3433597;80;21528;-89
2022/10/10 04:51:00;;;;;;;19.80;13.35;;;;;;;1.54;79.02;101699.61;3459777;80;20990;-89
2022/10/10 04:55:52;;;;;;;20.02;14.47;;;;;;;1.51;79.10;101693.86;3467015;80;21010;-89
2022/10/10 05:00:44;;;;;;;23.25;14.78;;;;;;;1.47;78.97;101691.00;3459908;80;21493;-89
2022/10/10 05:05:35;;;;;;;21.37;15.38;;;;;;;1.46;79.23;101674.71;3453491;80;20955;-90
2022/10/10 05:10:26;;;;;;;18.90;14.03;;;;;;;1.52;79.31;101677.72;3398876;81;22308;-89
2022/10/10 05:15:20;;;;;;;24.40;13.28;;;;;;;1.50;78.91;101676.73;3368169;81;21564;-89
2022/10/10 05:20:12;;;;;;;20.92;14.75;;;;;;;1.39;78.69;101687.89;3414066;82;22267;-89
2022/10/10 05:25:04;;;;;;;15.78;11.08;;;;;;;1.32;78.66;101685.31;3453004;81;21328;-89
2022/10/10 05:29:56;;;;;;;15.05;11.90;;;;;;;1.29;78.68;101684.21;3461463;80;20971;-89
2022/10/10 05:34:47;;;;;;;20.48;14.78;;;;;;;1.25;79.05;101686.95;3430702;81;20986;-89
2022/10/10 05:39:38;;;;;;;17.48;13.53;;;;;;;1.23;79.29;101690.16;3463600;80;21034;-88
2022/10/10 05:44:30;;;;;;;23.83;14.07;;;;;;;1.33;79.51;101692.59;3469415;80;20976;-89
2022/10/10 05:49:22;;;;;;;19.77;14.85;;;;;;;1.40;79.55;101687.12;3482903;80;21607;-88
2022/10/10 05:54:13;;;;;;;19.07;14.33;;;;;;;1.45;79.43;101682.29;3446619;81;21018;-88
2022/10/10 05:59:05;;;;;;;18.25;13.83;;;;;;;1.47;79.33;101680.34;3468229;80;21486;-87
2022/10/10 06:03:56;;;;;;;20.10;13.58;;;;;;;1.53;79.57;101674.34;3443431;79;21033;-87
2022/10/10 06:08:47;;;;;;;15.38;12.55;;;;;;;1.57;79.49;101677.13;3537730;79;21485;-87
2022/10/10 06:13:38;;;;;;;18.15;11.68;;;;;;;1.60;79.61;101668.38;3510291;81;22057;-87
2022/10/10 06:18:29;;;;;;;15.53;12.07;;;;;;;1.67;79.87;101668.89;3460606;81;20943;-87
2022/10/10 06:23:20;;;;;;;16.93;11.60;;;;;;;1.72;79.84;101675.62;3449867;81;20932;-87
2022/10/10 06:28:12;;;;;;;17.00;13.05;;;;;;;1.84;80.13;101676.46;3487344;80;20944;-87
2022/10/10 06:33:03;;;;;;;17.95;13.22;;;;;;;1.95;80.15;101673.70;3459702;80;20978;-87
2022/10/10 06:37:54;;;;;;;16.40;13.28;;;;;;;2.23;80.21;101669.62;3472565;81;21176;-87
2022/10/10 06:42:45;;;;;;;16.77;12.05;;;;;;;2.80;79.64;101672.41;3458338;81;20973;-87
2022/10/10 06:47:36;;;;;;;18.07;12.68;;;;;;;2.93;79.68;101665.97;3466790;80;20904;-87
2022/10/10 06:52:27;;;;;;;18.62;13.48;;;;;;;3.11;79.66;101669.20;3458082;81;21206;-87
2022/10/10 06:57:18;;;;;;;18.87;14.23;;;;;;;3.15;79.89;101668.59;3434125;81;20969;-87
2022/10/10 07:02:13;;;;;;;20.07;13.37;;;;;;;3.23;80.50;101664.83;3466149;81;22303;-87
2022/10/10 07:07:04;;;;;;;17.32;13.10;;;;;;;3.30;80.56;101665.70;3485199;80;21830;-87
2022/10/10 07:11:55;;;;;;;21.97;13.98;;;;;;;3.51;80.66;101662.27;3519363;79;21047;-87
2022/10/10 07:16:46;;;;;;;26.00;18.20;;;;;;;3.75;80.96;101660.27;3410870;80;20975;-87
2022/10/10 07:21:37;;;;;;;20.00;15.50;;;;;;;3.99;81.32;101659.97;3463397;80;21060;-87
2022/10/10 07:26:30;;;;;;;31.37;21.40;;;;;;;4.09;81.35;101645.53;3433430;80;21501;-87
2022/10/10 07:31:21;;;;;;;28.95;19.52;;;;;;;4.40;81.85;101653.75;3457382;80;20975;-87
2022/10/10 07:36:13;;;;;;;34.43;24.75;;;;;;;4.73;81.99;101653.45;3474218;80;20967;-87
2022/10/10 07:41:11;;;;;;;28.83;20.43;;;;;;;5.24;82.24;101649.78;3432853;80;20967;-84
2022/10/10 07:46:04;;;;;;;23.60;18.27;;;;;;;6.57;80.25;101652.23;3415608;80;21062;-85
2022/10/10 07:50:55;;;;;;;25.62;21.55;;;;;;;8.09;77.99;101657.32;3410193;80;22094;-85
2022/10/10 07:55:46;;;;;;;35.63;24.43;;;;;;;7.69;78.93;101656.88;3409055;80;20955;-85
2022/10/10 08:00:42;;;;;;;27.32;21.37;;;;;;;7.40;79.62;101648.34;3444857;80;20995;-85
2022/10/10 08:05:31;;;;;;;28.12;21.93;;;;;;;7.32;80.35;101638.45;3466315;80;22407;-84
2022/10/10 08:10:22;;;;;;;27.85;23.77;;;;;;;7.56;80.40;101635.64;3448587;80;20947;-84
2022/10/10 08:15:13;;;;;;;30.25;23.95;;;;;;;8.26;79.53;101627.80;3469998;80;21434;-84
2022/10/10 08:20:05;;;;;;;33.48;26.05;;;;;;;8.15;80.09;101627.77;3422519;80;20979;-84
2022/10/10 08:24:56;;;;;;;29.95;24.90;;;;;;;8.05;80.38;101624.31;3454548;80;20959;-84
2022/10/10 08:29:48;;;;;;;26.23;23.22;;;;;;;8.16;80.49;101617.90;3485557;80;20951;-84
2022/10/10 08:34:39;;;;;;;29.60;24.52;;;;;;;8.81;79.39;101607.11;3508754;80;20885;-84
2022/10/10 08:39:31;;;;;;;26.10;23.00;;;;;;;8.78;79.86;101598.81;3453452;80;21357;-84
2022/10/10 08:44:36;;;;;;;22.25;19.25;;;;;;;9.27;79.51;101588.50;3483490;80;21518;-84
2022/10/10 08:49:47;;;;;;;18.23;16.23;;;;;;;9.27;79.51;101588.50;3509650;80;21477;-84
2022/10/10 08:54:40;;;;;;;18.57;16.00;;;;;;;9.38;79.11;101574.19;3491333;80;20967;-83
2022/10/10 08:59:38;;;;;;;20.05;15.43;;;;;;;9.80;78.09;101582.10;3459922;80;20943;-83
2022/10/10 09:04:32;;;;;;;;;;;;;;;9.91;78.34;101570.38;3483597;80;21257;-83
2022/10/10 09:09:43;;;;;;;13.58;11.38;;;;;;;10.02;78.39;101572.03;3511962;80;20146;-83
2022/10/10 09:14:40;;;;;;;17.48;10.10;;;;;;;10.05;78.34;101562.63;3493032;80;21457;-83
2022/10/10 09:19:49;;;;;;;8.83;7.30;;;;;;;10.28;77.56;101563.76;3490741;80;20989;-83
2022/10/10 09:24:54;;;;;;;8.20;5.97;;;;;;;11.35;75.39;101569.11;3465188;80;21771;-84
2022/10/10 09:30:03;;;;;;;5.83;5.22;;;;;;;12.00;73.53;101558.66;3492568;80;21018;-83
2022/10/10 09:35:04;;;;;;;6.62;5.12;;;;;;;12.31;72.32;101548.98;3449363;80;21130;-84
2022/10/10 09:40:10;;;;;;;6.70;5.40;;;;;;;12.11;72.94;101549.39;3411251;81;21492;-84
2022/10/10 09:45:05;;;;;;;7.95;5.58;;;;;;;13.02;72.11;101547.88;3468726;79;20974;-84
2022/10/10 09:49:58;;;;;;;6.85;5.12;;;;;;;14.75;68.49;101534.23;3478082;80;21428;-84
2022/10/10 09:54:54;;;;;;;7.37;4.10;;;;;;;14.53;66.55;101528.26;3432917;81;21484;-84
2022/10/10 09:59:45;;;;;;;4.53;4.03;;;;;;;15.82;65.20;101527.11;3435949;81;20947;-84
2022/10/10 10:04:37;;;;;;;6.40;4.20;;;;;;;15.17;65.27;101520.35;3419942;80;20941;-84
2022/10/10 10:09:28;;;;;;;8.63;4.40;;;;;;;14.99;65.85;101521.03;3463201;81;20978;-83
2022/10/10 10:14:30;;;;;;;7.28;4.37;;;;;;;15.06;65.62;101526.78;3411530;81;20974;-84
2022/10/10 10:19:38;;;;;;;4.05;3.22;;;;;;;15.45;64.53;101512.31;3478934;80;21392;-84
2022/10/10 10:24:35;;;;;;;4.87;3.83;;;;;;;15.32;63.41;101516.56;3422112;81;20947;-85
2022/10/10 10:29:29;;;;;;;;;;;;;;;14.55;66.00;101506.91;3438145;80;20963;-85
2022/10/10 10:34:38;;;;;;;7.47;4.00;;;;;;;14.97;64.37;101501.77;3478143;80;20193;-85
2022/10/10 10:39:56;;;;;;;3.85;3.20;;;;;;;14.83;65.19;101502.50;3480140;80;20867;-85
2022/10/10 10:44:59;;;;;;;4.30;3.22;;;;;;;14.46;66.02;101496.77;3476012;80;21329;-85
2022/10/10 10:50:23;;;;;;;4.72;3.40;;;;;;;14.19;65.71;101479.39;3463872;80;20941;-84
2022/10/10 10:55:38;;;;;;;4.40;3.30;;;;;;;14.29;65.13;101472.13;3485718;80;21051;-84
2022/10/10 11:00:35;;;;;;;3.50;3.20;;;;;;;14.23;65.28;101472.03;3488732;80;21027;-84
2022/10/10 11:05:43;;;;;;;8.68;5.15;;;;;;;14.30;65.43;101462.10;3427810;81;21521;-84
2022/10/10 11:11:00;;;;;;;3.10;2.67;;;;;;;15.24;63.97;101449.69;3310954;85;21512;-84
2022/10/10 11:16:03;;;;;;;4.55;2.58;;;;;;;16.55;61.91;101438.78;3351329;83;21538;-84
2022/10/10 11:21:08;;;;;;;2.52;2.10;;;;;;;17.67;60.15;101424.06;3202409;88;21024;-85
2022/10/10 11:26:14;;;;;;;2.90;2.15;;;;;;;19.47;57.49;101415.34;3195431;88;21009;-85
2022/10/10 11:31:19;;;;;;;4.15;2.40;;;;;;;21.06;56.49;101416.16;3177161;87;21179;-86
2022/10/10 11:36:24;;;;;;;2.87;2.40;;;;;;;22.16;54.22;101405.84;3203016;88;21046;-85
2022/10/10 11:41:23;;;;;;;4.92;2.40;;;;;;;22.37;52.04;101404.56;3183062;88;21487;-85
2022/10/10 11:46:36;;;;;;;2.30;2.10;;;;;;;21.81;52.91;101393.72;3177843;88;21050;-85
2022/10/10 11:51:35;;;;;;;3.47;2.40;;;;;;;21.14;53.92;101385.19;3241877;87;21063;-85
2022/10/10 11:56:35;;;;;;;2.50;2.30;;;;;;;20.13;54.43;101384.35;3269157;82;20943;-85
2022/10/10 12:01:37;;;;;;;6.33;2.55;;;;;;;19.14;54.42;101374.34;3441967;81;22039;-85
2022/10/10 12:06:33;;;;;;;2.77;2.15;;;;;;;18.60;55.53;101378.61;3499995;78;20931;-85
2022/10/10 12:11:35;;;;;;;3.90;2.27;;;;;;;18.16;55.22;101367.42;3488890;80;21002;-85
2022/10/10 12:16:30;;;;;;;6.08;2.35;;;;;;;17.81;55.80;101364.42;3510588;79;20943;-85
2022/10/10 12:21:25;;;;;;;3.40;2.20;;;;;;;17.57;55.99;101353.98;3487510;80;20926;-85
2022/10/10 12:26:20;;;;;;;3.22;1.77;;;;;;;17.46;55.32;101346.98;3464820;80;20980;-85
2022/10/10 12:31:17;;;;;;;4.05;1.85;;;;;;;17.40;54.35;101332.96;3455113;78;21062;-85
2022/10/10 12:36:28;;;;;;;3.62;2.10;;;;;;;17.43;55.01;101322.45;3532254;78;20983;-85
2022/10/10 12:41:19;;;;;;;6.05;2.20;;;;;;;17.55;55.44;101311.92;3485423;80;20960;-85
2022/10/10 12:46:21;;;;;;;2.75;1.92;;;;;;;17.80;55.04;101295.63;3435170;80;21505;-85
2022/10/10 12:51:22;;;;;;;2.72;2.00;;;;;;;17.71;53.70;101294.34;3531660;80;20970;-85
2022/10/10 12:56:13;;;;;;;1.72;1.62;;;;;;;17.66;55.18;101286.91;3515258;80;20963;-85
2022/10/10 13:01:27;;;;;;;4.97;2.37;;;;;;;17.68;54.51;101273.31;3479452;80;21018;-85
2022/10/10 13:06:38;;;;;;;3.22;1.95;;;;;;;17.67;55.37;101266.28;3555840;79;20935;-85
2022/10/10 13:11:29;;;;;;;6.80;1.90;;;;;;;17.59;55.26;101259.75;3490596;80;20924;-85
2022/10/10 13:16:25;;;;;;;6.55;2.50;;;;;;;17.66;54.87;101259.30;3406326;82;21508;-85
2022/10/10 13:21:24;;;;;;;4.00;2.33;;;;;;;17.63;54.73;101251.41;3450888;82;20971;-85
2022/10/10 13:26:26;;;;;;;4.60;1.55;;;;;;;17.56;53.86;101239.17;3397413;82;20967;-84
2022/10/10 13:31:18;;;;;;;3.90;1.57;;;;;;;17.33;53.02;101236.16;3459237;82;21426;-85
2022/10/10 13:36:20;;;;;;;2.65;1.65;;;;;;;17.05;52.24;101233.61;3388482;82;21446;-85
2022/10/10 13:41:12;;;;;;;4.28;1.67;;;;;;;16.87;52.10;101221.82;3434386;82;21897;-85
2022/10/10 13:46:04;;;;;;;3.65;1.65;;;;;;;16.66;52.37;101214.34;3456801;82;21222;-84
2022/10/10 13:51:06;;;;;;;2.83;1.80;;;;;;;16.51;52.92;101205.17;3503333;79;20974;-84
2022/10/10 13:56:12;;;;;;;4.80;2.72;;;;;;;16.35;52.54;101195.10;3449839;80;22164;-85
2022/10/10 14:01:03;;;;;;;2.65;1.60;;;;;;;16.20;53.62;101197.25;3521727;79;20966;-84
2022/10/10 14:05:55;;;;;;;3.37;2.02;;;;;;;16.06;54.10;101187.17;3510012;80;21126;-84
2022/10/10 14:11:04;;;;;;;4.97;2.30;;;;;;;15.96;54.88;101183.23;3454420;81;21452;-84
2022/10/10 14:16:12;;;;;;;3.55;2.05;;;;;;;15.80;55.32;101183.62;3424452;82;20960;-84
2022/10/10 14:21:03;;;;;;;5.90;1.70;;;;;;;15.70;54.50;101180.94;3427890;81;20979;-84
2022/10/10 14:25:56;;;;;;;3.17;1.40;;;;;;;15.54;55.55;101163.86;3430711;81;21465;-84
2022/10/10 14:30:48;;;;;;;7.97;2.52;;;;;;;15.32;54.85;101162.02;3445807;80;21473;-85
2022/10/10 14:35:40;;;;;;;2.37;1.40;;;;;;;15.05;55.52;101167.55;3443544;81;21014;-84
2022/10/10 14:40:33;;;;;;;5.60;2.02;;;;;;;14.83;56.75;101167.86;3479862;81;21318;-84
2022/10/10 14:45:24;;;;;;;5.75;1.90;;;;;;;14.57;56.75;101167.62;3467778;80;21448;-84
2022/10/10 14:50:21;;;;;;;4.10;2.25;;;;;;;14.27;57.73;101159.95;3488906;79;20975;-84
2022/10/10 14:55:13;;;;;;;8.10;1.98;;;;;;;13.96;57.97;101156.20;3491334;80;21491;-84
2022/10/10 15:00:10;;;;;;;5.45;2.00;;;;;;;13.69;58.29;101157.21;3497334;78;20985;-84
2022/10/10 15:05:01;;;;;;;6.03;2.08;;;;;;;13.45;58.78;101149.98;3444076;80;21490;-84
2022/10/10 15:09:52;;;;;;;3.02;1.47;;;;;;;13.19;59.44;101146.13;3431723;81;20915;-84
2022/10/10 15:14:43;;;;;;;3.62;1.98;;;;;;;12.88;60.05;101144.41;3458754;81;21441;-84
2022/10/10 15:19:34;;;;;;;7.97;2.50;;;;;;;12.62;60.55;101140.10;3456202;79;21053;-84
2022/10/10 15:24:26;;;;;;;7.20;1.95;;;;;;;12.37;61.60;101144.92;3520895;78;21774;-84
2022/10/10 15:29:17;;;;;;;6.35;2.02;;;;;;;12.11;62.43;101138.85;3472345;80;20989;-84
2022/10/10 15:34:08;;;;;;;4.10;2.40;;;;;;;11.85;62.79;101131.83;3455715;80;20927;-84
2022/10/10 15:38:59;;;;;;;5.60;2.25;;;;;;;11.61;63.21;101134.86;3488551;81;21497;-84
2022/10/10 15:43:53;;;;;;;4.35;1.95;;;;;;;11.38;63.71;101129.20;3464453;80;21404;-84
2022/10/10 15:48:45;;;;;;;3.83;2.40;;;;;;;11.16;64.09;101128.75;3417556;80;20903;-84
2022/10/10 15:53:36;;;;;;;10.95;3.65;;;;;;;10.95;64.46;101123.95;3420194;81;20964;-84
2022/10/10 15:58:27;;;;;;;6.30;2.55;;;;;;;10.76;64.90;101123.09;3394598;81;21081;-84
2022/10/10 16:03:18;;;;;;;6.80;2.80;;;;;;;10.58;65.40;101123.11;3386666;81;21011;-83
2022/10/10 16:08:13;;;;;;;6.15;2.87;;;;;;;10.40;65.54;101122.69;3479943;80;21066;-84
2022/10/10 16:13:04;;;;;;;6.30;2.72;;;;;;;10.24;66.20;101126.16;3432075;78;21213;-84
2022/10/10 16:17:56;;;;;;;7.03;3.15;;;;;;;10.12;66.72;101136.25;3363502;81;21538;-84
2022/10/10 16:22:47;;;;;;;10.08;3.02;;;;;;;10.01;67.21;101136.40;3540969;79;20965;-83
2022/10/10 16:27:38;;;;;;;7.00;3.08;;;;;;;9.90;67.58;101124.44;3448398;79;21492;-84
2022/10/10 16:32:29;;;;;;;11.03;3.90;;;;;;;9.78;67.88;101132.77;3492814;79;22123;-84
2022/10/10 16:37:20;;;;;;;5.15;3.50;;;;;;;9.66;68.22;101137.23;3520450;79;21701;-84
2022/10/10 16:42:11;;;;;;;5.97;3.60;;;;;;;9.54;68.70;101135.16;3402332;80;20982;-84
2022/10/10 16:47:02;;;;;;;7.17;4.00;;;;;;;9.43;68.99;101137.02;3411237;79;21583;-84
2022/10/10 16:51:54;;;;;;;4.70;3.45;;;;;;;9.34;69.45;101137.20;3378526;83;21425;-84
2022/10/10 16:56:45;;;;;;;6.25;3.75;;;;;;;9.25;69.73;101133.47;3389019;81;21252;-84
2022/10/10 17:01:36;;;;;;;10.08;5.12;;;;;;;9.13;69.86;101140.04;3483366;80;20977;-84
2022/10/10 17:06:31;;;;;;;4.12;3.40;;;;;;;9.06;70.15;101141.13;3415367;81;20946;-84
2022/10/10 17:11:24;;;;;;;8.28;4.05;;;;;;;8.97;70.34;101127.45;3427666;80;20932;-84
2022/10/10 17:16:20;;;;;;;5.08;4.58;;;;;;;8.86;70.52;101128.85;3466007;81;22081;-84
2022/10/10 17:21:16;;;;;;;7.12;4.87;;;;;;;8.78;70.80;101132.09;3497777;79;20960;-84
2022/10/10 17:26:11;;;;;;;9.63;5.50;;;;;;;8.68;71.01;101119.67;3447415;79;20899;-84
2022/10/10 17:31:14;;;;;;;7.05;4.37;;;;;;;8.66;71.45;101113.56;3487593;79;42845;-84
2022/10/10 17:36:18;;;;;;;12.28;5.17;;;;;;;8.58;71.68;101104.66;3488320;79;20940;-84
2022/10/10 17:41:13;;;;;;;7.37;5.72;;;;;;;8.54;72.16;101092.44;3500078;80;20948;-84
2022/10/10 17:46:09;;;;;;;7.62;5.25;;;;;;;8.49;72.37;101086.23;3498707;79;22523;-84
2022/10/10 17:51:00;;;;;;;10.05;6.22;;;;;;;8.40;72.45;101072.11;3471052;81;21287;-84
2022/10/10 17:55:51;;;;;;;7.90;5.80;;;;;;;8.39;72.68;101074.25;3415918;80;20965;-84
2022/10/10 18:00:42;;;;;;;13.08;6.80;;;;;;;8.30;73.11;101068.78;3458953;80;21235;-84
2022/10/10 18:05:35;;;;;;;9.33;7.20;;;;;;;8.30;73.11;101068.78;3427606;80;20947;-84
2022/10/10 18:10:27;;;;;;;13.32;6.37;;;;;;;8.28;73.24;101074.34;3437692;80;21078;-84
2022/10/10 18:15:18;;;;;;;11.90;7.33;;;;;;;8.24;73.18;101065.98;3403174;82;21445;-84
2022/10/10 18:20:11;;;;;;;12.15;7.17;;;;;;;8.23;73.48;101067.22;3430545;81;20978;-83
2022/10/10 18:25:02;;;;;;;10.30;7.53;;;;;;;8.23;73.68;101051.28;3451772;81;20972;-83
2022/10/10 18:29:53;;;;;;;13.22;7.80;;;;;;;8.23;73.71;101051.68;3374850;82;20959;-83
2022/10/10 18:34:44;;;;;;;12.18;7.87;;;;;;;8.16;73.59;101041.56;3462689;81;21470;-83
2022/10/10 18:39:36;;;;;;;10.27;8.00;;;;;;;8.16;73.59;101041.56;3427301;80;20975;-84
2022/10/10 18:44:28;;;;;;;11.43;7.90;;;;;;;8.21;74.01;101058.13;3319110;83;21493;-84
2022/10/10 18:49:19;;;;;;;13.18;7.40;;;;;;;8.22;73.90;101057.28;3394519;82;20983;-84
2022/10/10 18:54:15;;;;;;;12.82;8.10;;;;;;;8.20;74.03;101042.11;3408118;81;21499;-84
2022/10/10 18:59:10;;;;;;;12.65;7.65;;;;;;;8.17;74.05;101034.23;3393258;80;21202;-84
2022/10/10 19:04:03;;;;;;;10.80;7.95;;;;;;;8.20;73.96;101018.80;3414873;81;20955;-83
2022/10/10 19:08:57;;;;;;;12.85;7.53;;;;;;;8.20;73.96;101018.80;3363301;81;20995;-84
2022/10/10 19:13:49;;;;;;;9.53;7.53;;;;;;;8.16;74.34;101023.43;3413002;82;20980;-83
2022/10/10 19:18:40;;;;;;;10.00;7.72;;;;;;;8.11;74.52;101015.50;3447933;80;20908;-84
2022/10/10 19:23:32;;;;;;;11.55;8.05;;;;;;;8.07;74.59;101020.55;3415742;81;21500;-83
2022/10/10 19:28:23;;;;;;;11.85;7.70;;;;;;;8.02;74.53;101018.67;3378086;82;22925;-84
2022/10/10 19:33:15;;;;;;;12.43;7.58;;;;;;;7.97;74.65;101022.82;3430991;81;21022;-83
2022/10/10 19:38:08;;;;;;;14.20;7.80;;;;;;;7.94;74.87;101016.27;3393088;81;21434;-83
2022/10/10 19:43:01;;;;;;;14.68;7.72;;;;;;;7.89;75.11;101011.78;3336818;83;22145;-84
2022/10/10 19:47:52;;;;;;;11.22;6.80;;;;;;;7.85;75.32;101005.59;3356886;82;21576;-84
2022/10/10 19:52:43;;;;;;;13.95;8.10;;;;;;;7.82;75.51;101002.92;3374656;82;20971;-84
2022/10/10 19:57:34;;;;;;;16.48;10.10;;;;;;;7.76;75.55;101000.11;3379604;81;20986;-84
2022/10/10 20:02:25;;;;;;;15.85;7.35;;;;;;;7.72;75.69;100996.97;3419961;80;21034;-83
2022/10/10 20:07:17;;;;;;;13.13;8.93;;;;;;;7.67;75.74;100985.58;3408802;80;21014;-84
2022/10/10 20:12:08;;;;;;;13.62;8.30;;;;;;;7.61;75.88;100981.95;3423591;80;22087;-84
2022/10/10 20:17:00;;;;;;;17.10;8.68;;;;;;;7.59;75.91;100979.73;3450315;80;20971;-84
2022/10/10 20:21:52;;;;;;;13.22;9.13;;;;;;;7.54;76.03;100974.82;3446629;80;20989;-84
2022/10/10 20:26:43;;;;;;;13.05;8.23;;;;;;;7.52;76.19;100977.78;3383229;81;21520;-84
2022/10/10 20:31:36;;;;;;;13.55;9.30;;;;;;;7.48;76.24;100970.75;3430530;80;21022;-84
2022/10/10 20:36:30;;;;;;;14.58;10.32;;;;;;;7.44;76.31;100968.90;3427900;80;21169;-84
2022/10/10 20:41:24;;;;;;;23.55;12.35;;;;;;;7.35;76.40;100963.38;3414757;81;20987;-84
2022/10/10 20:46:16;;;;;;;15.45;9.28;;;;;;;7.35;76.40;100963.38;3395090;81;21009;-85
2022/10/10 20:51:11;;;;;;;13.95;8.93;;;;;;;7.35;76.39;100959.50;3446995;80;21083;-86
2022/10/10 20:56:05;;;;;;;13.15;6.80;;;;;;;7.35;76.89;100951.35;3406305;80;20989;-87
2022/10/10 21:01:11;;;;;;;13.45;9.28;;;;;;;7.39;76.76;100958.80;3477959;80;21517;-86
2022/10/10 21:06:19;;;;;;;11.75;7.92;;;;;;;7.38;76.98;100951.86;3446554;80;21367;-86
2022/10/10 21:11:13;;;;;;;9.23;7.62;;;;;;;7.37;76.94;100941.06;3419369;81;20938;-86
2022/10/10 21:16:14;;;;;;;12.90;8.50;;;;;;;7.43;77.21;100936.08;3357651;81;20988;-87
2022/10/10 21:21:07;;;;;;;11.97;8.63;;;;;;;7.54;77.54;100928.67;3426376;81;21588;-86
2022/10/10 21:26:09;;;;;;;14.50;8.63;;;;;;;7.54;77.54;100928.67;3389601;81;21235;-86
2022/10/10 21:31:01;;;;;;;14.87;8.00;;;;;;;7.56;77.22;100929.17;3398471;81;21062;-86
2022/10/10 21:35:54;;;;;;;13.03;8.60;;;;;;;7.66;77.20;100923.02;3360899;81;21054;-86
2022/10/10 21:40:46;;;;;;;14.55;8.60;;;;;;;7.69;77.13;100917.53;3390432;82;21032;-86
2022/10/10 21:45:39;;;;;;;9.35;7.30;;;;;;;7.76;77.10;100914.70;3380606;81;21021;-87
2022/10/10 21:50:31;;;;;;;10.55;7.85;;;;;;;7.83;76.89;100912.38;3384615;81;22013;-86
2022/10/10 21:55:23;;;;;;;10.65;7.47;;;;;;;7.84;76.83;100905.48;3404757;82;20999;-86
2022/10/10 22:00:17;;;;;;;11.85;7.40;;;;;;;7.86;76.83;100908.98;3360260;81;20998;-86
2022/10/10 22:05:12;;;;;;;13.55;8.20;;;;;;;7.95;76.69;100906.67;3392645;80;21529;-86
2022/10/10 22:10:06;;;;;;;10.68;7.33;;;;;;;7.96;76.53;100908.45;3440205;80;20946;-86
2022/10/10 22:14:57;;;;;;;11.40;7.70;;;;;;;7.99;76.57;100894.70;3430184;80;21032;-86
2022/10/10 22:19:48;;;;;;;9.70;7.47;;;;;;;8.04;76.51;100894.86;3476941;79;21037;-86
2022/10/10 22:24:39;;;;;;;10.45;8.78;;;;;;;8.03;76.46;100893.98;3447469;80;20991;-87
2022/10/10 22:29:30;;;;;;;12.95;7.17;;;;;;;8.02;76.30;100887.91;3465272;80;21045;-86
2022/10/10 22:34:22;;;;;;;11.10;7.42;;;;;;;8.04;76.32;100881.91;3490697;79;20979;-86
2022/10/10 22:39:14;;;;;;;11.08;7.35;;;;;;;8.01;76.20;100882.28;3441187;80;22114;-86
2022/10/10 22:44:05;;;;;;;9.60;6.62;;;;;;;7.98;76.37;100879.59;3511152;79;20990;-86